sensor_id;sensor_type;location;lat;lon;timestamp;P1;durP1;ratioP1;P2;durP2;ratioP2
18174;SDS011;9212;50.894;16.714;2022-08-25T00:01:00;30.60;;;17.02;;
18174;SDS011;9212;50.894;16.714;2022-08-25T00:03:28;36.42;;;17.70;;
18174;SDS011;9212;50.894;16.714;2022-08-25T00:05:55;35.45;;;17.55;;
18174;SDS011;9212;50.894;16.714;2022-08-25T00:08:22;34.90;;;17.65;;
18174;SDS011;9212;50.894;16.714;2022-08-25T00:10:49;35.83;;;17.75;;
18174;SDS011;9212;50.894;16.714;2022-08-25T00:13:16;38.33;;;17.10;;
18174;SDS011;9212;50.894;16.714;2022-08-25T00:15:43;33.05;;;16.27;;
18174;SDS011;9212;50.894;16.714;2022-08-25T00:18:11;56.42;;;16.50;;
18174;SDS011;9212;50.894;16.714;2022-08-25T00:20:39;35.05;;;17.00;;
18174;SDS011;9212;50.894;16.714;2022-08-25T00:23:07;37.50;;;17.08;;
18174;SDS011;9212;50.894;16.714;2022-08-25T00:25:34;35.60;;;17.00;;
18174;SDS011;9212;50.894;16.714;2022-08-25T00:28:01;41.60;;;16.90;;
18174;SDS011;9212;50.894;16.714;2022-08-25T00:30:28;42.13;;;17.83;;
18174;SDS011;9212;50.894;16.714;2022-08-25T00:32:55;41.42;;;18.48;;
18174;SDS011;9212;50.894;16.714;2022-08-25T00:35:22;37.67;;;17.77;;
18174;SDS011;9212;50.894;16.714;2022-08-25T00:37:51;39.35;;;19.38;;
18174;SDS011;9212;50.894;16.714;2022-08-25T00:40:18;38.00;;;17.83;;
18174;SDS011;9212;50.894;16.714;2022-08-25T00:42:45;42.78;;;18.48;;
18174;SDS011;9212;50.894;16.714;2022-08-25T00:45:12;44.33;;;18.80;;
18174;SDS011;9212;50.894;16.714;2022-08-25T00:47:40;40.45;;;17.10;;
18174;SDS011;9212;50.894;16.714;2022-08-25T00:50:07;30.67;;;16.92;;
18174;SDS011;9212;50.894;16.714;2022-08-25T00:52:36;34.22;;;17.50;;
18174;SDS011;9212;50.894;16.714;2022-08-25T00:55:09;31.17;;;15.93;;
18174;SDS011;9212;50.894;16.714;2022-08-25T00:57:40;32.15;;;15.60;;
18174;SDS011;9212;50.894;16.714;2022-08-25T01:00:13;33.47;;;16.42;;
18174;SDS011;9212;50.894;16.714;2022-08-25T01:02:43;31.85;;;15.48;;
18174;SDS011;9212;50.894;16.714;2022-08-25T01:05:10;34.20;;;16.30;;
18174;SDS011;9212;50.894;16.714;2022-08-25T01:07:38;35.42;;;16.25;;
18174;SDS011;9212;50.894;16.714;2022-08-25T01:10:06;35.47;;;16.55;;
18174;SDS011;9212;50.894;16.714;2022-08-25T01:12:36;28.88;;;16.10;;
18174;SDS011;9212;50.894;16.714;2022-08-25T01:15:05;41.90;;;16.67;;
18174;SDS011;9212;50.894;16.714;2022-08-25T01:17:33;40.42;;;18.75;;
18174;SDS011;9212;50.894;16.714;2022-08-25T01:20:04;36.00;;;17.65;;
18174;SDS011;9212;50.894;16.714;2022-08-25T01:22:33;38.17;;;17.67;;
18174;SDS011;9212;50.894;16.714;2022-08-25T01:25:03;35.33;;;17.98;;
18174;SDS011;9212;50.894;16.714;2022-08-25T01:27:37;36.20;;;17.35;;
18174;SDS011;9212;50.894;16.714;2022-08-25T01:30:04;38.45;;;17.65;;
18174;SDS011;9212;50.894;16.714;2022-08-25T01:32:32;37.45;;;17.10;;
18174;SDS011;9212;50.894;16.714;2022-08-25T01:34:59;34.53;;;16.45;;
18174;SDS011;9212;50.894;16.714;2022-08-25T01:37:26;33.65;;;16.45;;
18174;SDS011;9212;50.894;16.714;2022-08-25T01:39:55;32.88;;;16.90;;
18174;SDS011;9212;50.894;16.714;2022-08-25T01:42:23;27.73;;;15.23;;
18174;SDS011;9212;50.894;16.714;2022-08-25T01:45:03;37.78;;;16.63;;
18174;SDS011;9212;50.894;16.714;2022-08-25T01:47:30;34.63;;;15.65;;
18174;SDS011;9212;50.894;16.714;2022-08-25T01:49:57;33.22;;;15.73;;
18174;SDS011;9212;50.894;16.714;2022-08-25T01:52:27;24.67;;;15.23;;
18174;SDS011;9212;50.894;16.714;2022-08-25T01:54:58;32.70;;;15.57;;
18174;SDS011;9212;50.894;16.714;2022-08-25T01:57:27;38.67;;;16.25;;
18174;SDS011;9212;50.894;16.714;2022-08-25T01:59:55;34.53;;;17.48;;
18174;SDS011;9212;50.894;16.714;2022-08-25T02:02:23;31.52;;;16.88;;
18174;SDS011;9212;50.894;16.714;2022-08-25T02:04:50;42.85;;;16.48;;
18174;SDS011;9212;50.894;16.714;2022-08-25T02:07:17;34.83;;;16.17;;
18174;SDS011;9212;50.894;16.714;2022-08-25T02:09:44;27.98;;;16.60;;
18174;SDS011;9212;50.894;16.714;2022-08-25T02:12:13;41.67;;;16.40;;
18174;SDS011;9212;50.894;16.714;2022-08-25T02:14:40;34.53;;;17.20;;
18174;SDS011;9212;50.894;16.714;2022-08-25T02:17:07;35.42;;;17.30;;
18174;SDS011;9212;50.894;16.714;2022-08-25T02:19:34;45.10;;;17.65;;
18174;SDS011;9212;50.894;16.714;2022-08-25T02:22:02;33.60;;;16.83;;
18174;SDS011;9212;50.894;16.714;2022-08-25T02:24:29;27.95;;;15.43;;
18174;SDS011;9212;50.894;16.714;2022-08-25T02:26:56;53.53;;;16.27;;
18174;SDS011;9212;50.894;16.714;2022-08-25T02:29:25;33.13;;;16.15;;
18174;SDS011;9212;50.894;16.714;2022-08-25T02:31:52;35.97;;;15.40;;
18174;SDS011;9212;50.894;16.714;2022-08-25T02:34:19;28.98;;;15.45;;
18174;SDS011;9212;50.894;16.714;2022-08-25T02:36:47;37.50;;;16.15;;
18174;SDS011;9212;50.894;16.714;2022-08-25T02:39:14;33.50;;;15.73;;
18174;SDS011;9212;50.894;16.714;2022-08-25T02:41:41;37.13;;;16.80;;
18174;SDS011;9212;50.894;16.714;2022-08-25T02:44:09;39.08;;;16.23;;
18174;SDS011;9212;50.894;16.714;2022-08-25T02:46:37;32.33;;;16.38;;
18174;SDS011;9212;50.894;16.714;2022-08-25T02:49:04;40.90;;;16.23;;
18174;SDS011;9212;50.894;16.714;2022-08-25T02:51:32;32.03;;;15.13;;
18174;SDS011;9212;50.894;16.714;2022-08-25T02:54:01;37.80;;;16.38;;
18174;SDS011;9212;50.894;16.714;2022-08-25T02:56:30;34.67;;;16.27;;
18174;SDS011;9212;50.894;16.714;2022-08-25T02:58:58;38.58;;;15.80;;
18174;SDS011;9212;50.894;16.714;2022-08-25T03:01:26;42.05;;;15.60;;
18174;SDS011;9212;50.894;16.714;2022-08-25T03:03:54;32.97;;;16.05;;
18174;SDS011;9212;50.894;16.714;2022-08-25T03:06:22;31.50;;;15.25;;
18174;SDS011;9212;50.894;16.714;2022-08-25T03:08:50;32.10;;;16.42;;
18174;SDS011;9212;50.894;16.714;2022-08-25T03:11:17;32.45;;;15.85;;
18174;SDS011;9212;50.894;16.714;2022-08-25T03:13:44;32.88;;;15.55;;
18174;SDS011;9212;50.894;16.714;2022-08-25T03:16:14;35.13;;;15.82;;
18174;SDS011;9212;50.894;16.714;2022-08-25T03:18:41;41.53;;;16.48;;
18174;SDS011;9212;50.894;16.714;2022-08-25T03:21:10;35.97;;;16.00;;
18174;SDS011;9212;50.894;16.714;2022-08-25T03:23:37;39.45;;;16.55;;
18174;SDS011;9212;50.894;16.714;2022-08-25T03:26:05;37.22;;;15.23;;
18174;SDS011;9212;50.894;16.714;2022-08-25T03:28:51;30.10;;;14.95;;
18174;SDS011;9212;50.894;16.714;2022-08-25T03:31:19;31.48;;;14.57;;
18174;SDS011;9212;50.894;16.714;2022-08-25T03:33:46;37.03;;;15.38;;
18174;SDS011;9212;50.894;16.714;2022-08-25T03:36:15;39.70;;;16.65;;
18174;SDS011;9212;50.894;16.714;2022-08-25T03:38:42;35.05;;;15.48;;
18174;SDS011;9212;50.894;16.714;2022-08-25T03:41:14;31.23;;;15.38;;
18174;SDS011;9212;50.894;16.714;2022-08-25T03:43:42;36.25;;;16.52;;
18174;SDS011;9212;50.894;16.714;2022-08-25T03:46:15;50.33;;;18.90;;
18174;SDS011;9212;50.894;16.714;2022-08-25T03:48:43;39.85;;;17.95;;
18174;SDS011;9212;50.894;16.714;2022-08-25T03:51:10;37.30;;;17.05;;
18174;SDS011;9212;50.894;16.714;2022-08-25T03:53:39;39.45;;;18.27;;
18174;SDS011;9212;50.894;16.714;2022-08-25T03:56:06;35.95;;;17.77;;
18174;SDS011;9212;50.894;16.714;2022-08-25T03:58:33;37.13;;;16.98;;
18174;SDS011;9212;50.894;16.714;2022-08-25T04:01:00;37.45;;;17.63;;
18174;SDS011;9212;50.894;16.714;2022-08-25T04:03:27;39.58;;;17.10;;
18174;SDS011;9212;50.894;16.714;2022-08-25T04:05:54;36.15;;;16.52;;
18174;SDS011;9212;50.894;16.714;2022-08-25T04:08:25;32.75;;;15.63;;
18174;SDS011;9212;50.894;16.714;2022-08-25T04:10:54;54.20;;;17.58;;
18174;SDS011;9212;50.894;16.714;2022-08-25T04:13:21;34.88;;;16.48;;
18174;SDS011;9212;50.894;16.714;2022-08-25T04:15:48;68.72;;;19.33;;
18174;SDS011;9212;50.894;16.714;2022-08-25T04:18:15;36.95;;;18.70;;
18174;SDS011;9212;50.894;16.714;2022-08-25T04:20:42;39.70;;;17.92;;
18174;SDS011;9212;50.894;16.714;2022-08-25T04:23:09;38.75;;;16.75;;
18174;SDS011;9212;50.894;16.714;2022-08-25T04:25:38;38.20;;;17.60;;
18174;SDS011;9212;50.894;16.714;2022-08-25T04:28:08;39.83;;;17.48;;
18174;SDS011;9212;50.894;16.714;2022-08-25T04:30:35;35.45;;;15.73;;
18174;SDS011;9212;50.894;16.714;2022-08-25T04:33:07;39.03;;;17.55;;
18174;SDS011;9212;50.894;16.714;2022-08-25T04:35:34;41.58;;;19.40;;
18174;SDS011;9212;50.894;16.714;2022-08-25T04:38:01;48.53;;;18.73;;
18174;SDS011;9212;50.894;16.714;2022-08-25T04:40:28;48.03;;;20.17;;
18174;SDS011;9212;50.894;16.714;2022-08-25T04:42:55;41.65;;;21.73;;
18174;SDS011;9212;50.894;16.714;2022-08-25T04:45:24;36.22;;;18.30;;
18174;SDS011;9212;50.894;16.714;2022-08-25T04:47:50;38.03;;;16.38;;
18174;SDS011;9212;50.894;16.714;2022-08-25T04:50:18;36.75;;;17.55;;
18174;SDS011;9212;50.894;16.714;2022-08-25T04:52:45;42.85;;;20.17;;
18174;SDS011;9212;50.894;16.714;2022-08-25T04:55:13;37.83;;;18.58;;
18174;SDS011;9212;50.894;16.714;2022-08-25T04:57:40;34.28;;;16.77;;
18174;SDS011;9212;50.894;16.714;2022-08-25T05:00:08;61.33;;;24.60;;
18174;SDS011;9212;50.894;16.714;2022-08-25T05:02:37;55.90;;;25.60;;
18174;SDS011;9212;50.894;16.714;2022-08-25T05:05:04;63.67;;;26.17;;
18174;SDS011;9212;50.894;16.714;2022-08-25T05:07:32;57.92;;;26.25;;
18174;SDS011;9212;50.894;16.714;2022-08-25T05:09:59;61.42;;;26.40;;
18174;SDS011;9212;50.894;16.714;2022-08-25T05:12:26;64.32;;;26.90;;
18174;SDS011;9212;50.894;16.714;2022-08-25T05:14:54;66.50;;;25.77;;
18174;SDS011;9212;50.894;16.714;2022-08-25T05:17:42;65.15;;;26.15;;
18174;SDS011;9212;50.894;16.714;2022-08-25T05:20:09;65.20;;;27.80;;
18174;SDS011;9212;50.894;16.714;2022-08-25T05:22:37;64.10;;;27.05;;
18174;SDS011;9212;50.894;16.714;2022-08-25T05:25:04;72.50;;;28.70;;
18174;SDS011;9212;50.894;16.714;2022-08-25T05:27:32;66.22;;;27.67;;
18174;SDS011;9212;50.894;16.714;2022-08-25T05:29:59;65.63;;;28.65;;
18174;SDS011;9212;50.894;16.714;2022-08-25T05:32:26;74.05;;;29.35;;
18174;SDS011;9212;50.894;16.714;2022-08-25T05:34:55;65.95;;;28.10;;
18174;SDS011;9212;50.894;16.714;2022-08-25T05:37:22;70.53;;;29.40;;
18174;SDS011;9212;50.894;16.714;2022-08-25T05:39:49;71.45;;;28.65;;
18174;SDS011;9212;50.894;16.714;2022-08-25T05:42:15;75.13;;;29.10;;
18174;SDS011;9212;50.894;16.714;2022-08-25T05:44:43;65.97;;;27.48;;
18174;SDS011;9212;50.894;16.714;2022-08-25T05:47:10;77.10;;;27.83;;
18174;SDS011;9212;50.894;16.714;2022-08-25T05:49:37;57.67;;;26.38;;
18174;SDS011;9212;50.894;16.714;2022-08-25T05:52:05;67.85;;;27.17;;
18174;SDS011;9212;50.894;16.714;2022-08-25T05:54:32;66.20;;;27.23;;
18174;SDS011;9212;50.894;16.714;2022-08-25T05:56:59;62.83;;;27.20;;
18174;SDS011;9212;50.894;16.714;2022-08-25T05:59:27;60.83;;;26.65;;
18174;SDS011;9212;50.894;16.714;2022-08-25T06:01:55;69.22;;;29.52;;
18174;SDS011;9212;50.894;16.714;2022-08-25T06:04:40;62.88;;;27.75;;
18174;SDS011;9212;50.894;16.714;2022-08-25T06:07:09;73.57;;;28.00;;
18174;SDS011;9212;50.894;16.714;2022-08-25T06:09:36;66.97;;;27.98;;
18174;SDS011;9212;50.894;16.714;2022-08-25T06:12:04;68.50;;;26.70;;
18174;SDS011;9212;50.894;16.714;2022-08-25T06:14:31;63.05;;;27.77;;
18174;SDS011;9212;50.894;16.714;2022-08-25T06:16:59;71.95;;;28.25;;
18174;SDS011;9212;50.894;16.714;2022-08-25T06:19:26;70.25;;;28.15;;
18174;SDS011;9212;50.894;16.714;2022-08-25T06:21:53;63.75;;;27.83;;
18174;SDS011;9212;50.894;16.714;2022-08-25T06:24:23;62.15;;;27.27;;
18174;SDS011;9212;50.894;16.714;2022-08-25T06:26:51;59.78;;;27.10;;
18174;SDS011;9212;50.894;16.714;2022-08-25T06:29:18;60.58;;;26.55;;
18174;SDS011;9212;50.894;16.714;2022-08-25T06:31:45;52.22;;;26.02;;
18174;SDS011;9212;50.894;16.714;2022-08-25T06:34:14;59.78;;;26.77;;
18174;SDS011;9212;50.894;16.714;2022-08-25T06:36:41;56.22;;;25.50;;
18174;SDS011;9212;50.894;16.714;2022-08-25T06:39:09;57.03;;;26.20;;
18174;SDS011;9212;50.894;16.714;2022-08-25T06:41:37;50.05;;;23.73;;
18174;SDS011;9212;50.894;16.714;2022-08-25T06:44:04;54.20;;;24.58;;
18174;SDS011;9212;50.894;16.714;2022-08-25T06:46:32;49.80;;;24.33;;
18174;SDS011;9212;50.894;16.714;2022-08-25T06:49:00;55.20;;;25.17;;
18174;SDS011;9212;50.894;16.714;2022-08-25T06:51:27;55.03;;;24.40;;
18174;SDS011;9212;50.894;16.714;2022-08-25T06:53:54;56.47;;;24.70;;
18174;SDS011;9212;50.894;16.714;2022-08-25T06:56:21;47.60;;;23.73;;
18174;SDS011;9212;50.894;16.714;2022-08-25T06:58:50;51.53;;;25.20;;
18174;SDS011;9212;50.894;16.714;2022-08-25T07:01:18;44.58;;;23.08;;
18174;SDS011;9212;50.894;16.714;2022-08-25T07:03:47;39.90;;;21.98;;
18174;SDS011;9212;50.894;16.714;2022-08-25T07:06:15;43.70;;;21.95;;
18174;SDS011;9212;50.894;16.714;2022-08-25T07:08:43;48.17;;;22.23;;
18174;SDS011;9212;50.894;16.714;2022-08-25T07:11:11;45.13;;;22.42;;
18174;SDS011;9212;50.894;16.714;2022-08-25T07:13:38;47.70;;;23.42;;
18174;SDS011;9212;50.894;16.714;2022-08-25T07:16:07;46.63;;;24.33;;
18174;SDS011;9212;50.894;16.714;2022-08-25T07:18:35;40.05;;;21.67;;
18174;SDS011;9212;50.894;16.714;2022-08-25T07:21:02;45.72;;;21.98;;
18174;SDS011;9212;50.894;16.714;2022-08-25T07:23:29;43.00;;;22.95;;
18174;SDS011;9212;50.894;16.714;2022-08-25T07:25:56;48.28;;;24.65;;
18174;SDS011;9212;50.894;16.714;2022-08-25T07:28:33;49.72;;;22.13;;
18174;SDS011;9212;50.894;16.714;2022-08-25T07:31:00;51.63;;;23.73;;
18174;SDS011;9212;50.894;16.714;2022-08-25T07:33:29;43.80;;;23.25;;
18174;SDS011;9212;50.894;16.714;2022-08-25T07:35:56;41.75;;;21.42;;
18174;SDS011;9212;50.894;16.714;2022-08-25T07:38:22;38.88;;;21.48;;
18174;SDS011;9212;50.894;16.714;2022-08-25T07:40:49;43.63;;;22.40;;
18174;SDS011;9212;50.894;16.714;2022-08-25T07:43:19;40.30;;;21.83;;
18174;SDS011;9212;50.894;16.714;2022-08-25T07:45:47;40.92;;;21.55;;
18174;SDS011;9212;50.894;16.714;2022-08-25T07:48:15;40.45;;;21.58;;
18174;SDS011;9212;50.894;16.714;2022-08-25T07:50:45;43.22;;;21.80;;
18174;SDS011;9212;50.894;16.714;2022-08-25T07:53:15;41.40;;;23.35;;
18174;SDS011;9212;50.894;16.714;2022-08-25T07:55:42;39.65;;;22.08;;
18174;SDS011;9212;50.894;16.714;2022-08-25T07:58:09;41.50;;;22.67;;
18174;SDS011;9212;50.894;16.714;2022-08-25T08:00:36;45.05;;;22.58;;
18174;SDS011;9212;50.894;16.714;2022-08-25T08:03:05;38.65;;;20.48;;
18174;SDS011;9212;50.894;16.714;2022-08-25T08:05:33;37.50;;;20.23;;
18174;SDS011;9212;50.894;16.714;2022-08-25T08:08:02;34.13;;;19.77;;
18174;SDS011;9212;50.894;16.714;2022-08-25T08:10:30;39.42;;;20.80;;
18174;SDS011;9212;50.894;16.714;2022-08-25T08:12:57;31.13;;;17.95;;
18174;SDS011;9212;50.894;16.714;2022-08-25T08:15:24;34.08;;;19.13;;
18174;SDS011;9212;50.894;16.714;2022-08-25T08:17:51;31.17;;;17.67;;
18174;SDS011;9212;50.894;16.714;2022-08-25T08:20:18;34.63;;;17.80;;
18174;SDS011;9212;50.894;16.714;2022-08-25T08:22:45;28.80;;;17.00;;
18174;SDS011;9212;50.894;16.714;2022-08-25T08:25:14;35.63;;;18.92;;
18174;SDS011;9212;50.894;16.714;2022-08-25T08:27:41;27.83;;;16.75;;
18174;SDS011;9212;50.894;16.714;2022-08-25T08:30:10;33.53;;;17.48;;
18174;SDS011;9212;50.894;16.714;2022-08-25T08:32:38;38.42;;;19.65;;
18174;SDS011;9212;50.894;16.714;2022-08-25T08:35:05;31.65;;;18.13;;
18174;SDS011;9212;50.894;16.714;2022-08-25T08:37:33;32.20;;;17.45;;
18174;SDS011;9212;50.894;16.714;2022-08-25T08:40:02;33.22;;;19.27;;
18174;SDS011;9212;50.894;16.714;2022-08-25T08:42:36;35.58;;;20.60;;
18174;SDS011;9212;50.894;16.714;2022-08-25T08:45:30;48.80;;;21.65;;
18174;SDS011;9212;50.894;16.714;2022-08-25T08:51:16;44.35;;;22.50;;
18174;SDS011;9212;50.894;16.714;2022-08-25T08:53:49;41.10;;;21.23;;
18174;SDS011;9212;50.894;16.714;2022-08-25T08:56:20;44.25;;;23.10;;
18174;SDS011;9212;50.894;16.714;2022-08-25T08:58:53;43.55;;;22.05;;
18174;SDS011;9212;50.894;16.714;2022-08-25T09:01:23;40.72;;;22.63;;
18174;SDS011;9212;50.894;16.714;2022-08-25T09:03:55;35.72;;;21.02;;
18174;SDS011;9212;50.894;16.714;2022-08-25T09:06:29;35.17;;;21.35;;
18174;SDS011;9212;50.894;16.714;2022-08-25T09:09:03;33.97;;;19.45;;
18174;SDS011;9212;50.894;16.714;2022-08-25T09:11:34;35.70;;;20.38;;
18174;SDS011;9212;50.894;16.714;2022-08-25T09:14:19;36.17;;;20.42;;
18174;SDS011;9212;50.894;16.714;2022-08-25T09:16:58;37.00;;;19.20;;
18174;SDS011;9212;50.894;16.714;2022-08-25T09:19:40;37.17;;;21.27;;
18174;SDS011;9212;50.894;16.714;2022-08-25T09:22:35;37.35;;;20.25;;
18174;SDS011;9212;50.894;16.714;2022-08-25T09:25:14;37.35;;;19.95;;
18174;SDS011;9212;50.894;16.714;2022-08-25T09:27:47;37.00;;;19.02;;
18174;SDS011;9212;50.894;16.714;2022-08-25T09:30:22;41.50;;;21.17;;
18174;SDS011;9212;50.894;16.714;2022-08-25T09:32:50;35.42;;;20.25;;
18174;SDS011;9212;50.894;16.714;2022-08-25T09:35:26;38.55;;;20.45;;
18174;SDS011;9212;50.894;16.714;2022-08-25T09:37:55;31.75;;;19.00;;
18174;SDS011;9212;50.894;16.714;2022-08-25T09:40:24;35.80;;;19.73;;
18174;SDS011;9212;50.894;16.714;2022-08-25T09:42:52;32.53;;;20.08;;
18174;SDS011;9212;50.894;16.714;2022-08-25T09:45:31;37.25;;;18.10;;
18174;SDS011;9212;50.894;16.714;2022-08-25T09:48:02;45.22;;;20.13;;
18174;SDS011;9212;50.894;16.714;2022-08-25T09:50:47;35.75;;;19.17;;
18174;SDS011;9212;50.894;16.714;2022-08-25T09:53:15;33.78;;;18.45;;
18174;SDS011;9212;50.894;16.714;2022-08-25T09:55:43;36.67;;;19.63;;
18174;SDS011;9212;50.894;16.714;2022-08-25T09:58:21;33.83;;;19.48;;
18174;SDS011;9212;50.894;16.714;2022-08-25T10:01:01;40.95;;;20.38;;
18174;SDS011;9212;50.894;16.714;2022-08-25T10:03:32;41.47;;;19.48;;
18174;SDS011;9212;50.894;16.714;2022-08-25T10:06:00;40.03;;;20.30;;
18174;SDS011;9212;50.894;16.714;2022-08-25T10:08:36;41.88;;;21.05;;
18174;SDS011;9212;50.894;16.714;2022-08-25T10:11:06;43.60;;;20.90;;
18174;SDS011;9212;50.894;16.714;2022-08-25T10:13:39;47.08;;;20.73;;
18174;SDS011;9212;50.894;16.714;2022-08-25T10:16:10;35.92;;;20.17;;
18174;SDS011;9212;50.894;16.714;2022-08-25T10:18:46;42.53;;;19.17;;
18174;SDS011;9212;50.894;16.714;2022-08-25T10:21:26;34.47;;;19.00;;
18174;SDS011;9212;50.894;16.714;2022-08-25T10:23:54;33.20;;;18.90;;
18174;SDS011;9212;50.894;16.714;2022-08-25T10:26:22;34.15;;;18.10;;
18174;SDS011;9212;50.894;16.714;2022-08-25T10:29:01;34.25;;;18.73;;
18174;SDS011;9212;50.894;16.714;2022-08-25T10:31:42;38.45;;;17.55;;
18174;SDS011;9212;50.894;16.714;2022-08-25T10:34:29;35.60;;;16.13;;
18174;SDS011;9212;50.894;16.714;2022-08-25T10:37:09;27.77;;;15.23;;
18174;SDS011;9212;50.894;16.714;2022-08-25T10:39:42;26.58;;;14.50;;
18174;SDS011;9212;50.894;16.714;2022-08-25T10:42:14;25.80;;;15.00;;
18174;SDS011;9212;50.894;16.714;2022-08-25T10:44:49;27.92;;;14.80;;
18174;SDS011;9212;50.894;16.714;2022-08-25T10:47:47;24.50;;;13.73;;
18174;SDS011;9212;50.894;16.714;2022-08-25T10:50:28;29.52;;;13.85;;
18174;SDS011;9212;50.894;16.714;2022-08-25T10:53:07;28.63;;;15.25;;
18174;SDS011;9212;50.894;16.714;2022-08-25T10:55:42;29.58;;;15.13;;
18174;SDS011;9212;50.894;16.714;2022-08-25T10:58:19;29.65;;;15.52;;
18174;SDS011;9212;50.894;16.714;2022-08-25T11:00:54;31.92;;;13.23;;
18174;SDS011;9212;50.894;16.714;2022-08-25T11:03:33;29.75;;;12.30;;
18174;SDS011;9212;50.894;16.714;2022-08-25T11:06:10;28.55;;;13.13;;
18174;SDS011;9212;50.894;16.714;2022-08-25T11:08:43;22.80;;;11.70;;
18174;SDS011;9212;50.894;16.714;2022-08-25T11:11:18;34.42;;;12.40;;
18174;SDS011;9212;50.894;16.714;2022-08-25T11:13:52;22.65;;;11.85;;
18174;SDS011;9212;50.894;16.714;2022-08-25T11:16:25;24.23;;;11.30;;
18174;SDS011;9212;50.894;16.714;2022-08-25T11:19:04;19.63;;;11.35;;
18174;SDS011;9212;50.894;16.714;2022-08-25T11:21:39;32.05;;;11.50;;
18174;SDS011;9212;50.894;16.714;2022-08-25T11:24:19;26.63;;;11.02;;
18174;SDS011;9212;50.894;16.714;2022-08-25T11:26:57;26.52;;;8.10;;
18174;SDS011;9212;50.894;16.714;2022-08-25T11:29:27;24.48;;;9.88;;
18174;SDS011;9212;50.894;16.714;2022-08-25T11:32:01;17.67;;;9.88;;
18174;SDS011;9212;50.894;16.714;2022-08-25T11:34:31;22.15;;;10.13;;
18174;SDS011;9212;50.894;16.714;2022-08-25T11:37:02;19.25;;;9.32;;
18174;SDS011;9212;50.894;16.714;2022-08-25T11:39:42;30.23;;;11.20;;
18174;SDS011;9212;50.894;16.714;2022-08-25T11:42:26;23.15;;;9.18;;
18174;SDS011;9212;50.894;16.714;2022-08-25T11:45:09;20.00;;;9.90;;
18174;SDS011;9212;50.894;16.714;2022-08-25T11:47:59;22.85;;;10.68;;
18174;SDS011;9212;50.894;16.714;2022-08-25T11:53:32;20.90;;;10.35;;
18174;SDS011;9212;50.894;16.714;2022-08-25T11:56:01;22.15;;;10.57;;
18174;SDS011;9212;50.894;16.714;2022-08-25T11:58:38;28.42;;;10.93;;
18174;SDS011;9212;50.894;16.714;2022-08-25T12:01:08;26.83;;;10.43;;
18174;SDS011;9212;50.894;16.714;2022-08-25T12:03:45;22.85;;;10.20;;
18174;SDS011;9212;50.894;16.714;2022-08-25T12:06:24;32.25;;;10.40;;
18174;SDS011;9212;50.894;16.714;2022-08-25T12:11:53;21.90;;;10.05;;
18174;SDS011;9212;50.894;16.714;2022-08-25T12:14:41;32.42;;;11.50;;
18174;SDS011;9212;50.894;16.714;2022-08-25T12:17:18;25.52;;;11.38;;
18174;SDS011;9212;50.894;16.714;2022-08-25T12:19:57;22.58;;;12.00;;
18174;SDS011;9212;50.894;16.714;2022-08-25T12:22:39;39.38;;;12.23;;
18174;SDS011;9212;50.894;16.714;2022-08-25T12:31:07;30.45;;;12.88;;
18174;SDS011;9212;50.894;16.714;2022-08-25T12:33:46;27.10;;;12.57;;
18174;SDS011;9212;50.894;16.714;2022-08-25T12:36:26;33.17;;;13.23;;
18174;SDS011;9212;50.894;16.714;2022-08-25T12:39:07;24.45;;;11.95;;
18174;SDS011;9212;50.894;16.714;2022-08-25T12:41:51;27.50;;;10.85;;
18174;SDS011;9212;50.894;16.714;2022-08-25T12:44:32;24.70;;;9.98;;
18174;SDS011;9212;50.894;16.714;2022-08-25T12:47:06;19.88;;;8.73;;
18174;SDS011;9212;50.894;16.714;2022-08-25T12:49:38;19.63;;;8.18;;
18174;SDS011;9212;50.894;16.714;2022-08-25T12:52:06;23.98;;;9.60;;
18174;SDS011;9212;50.894;16.714;2022-08-25T12:54:45;30.33;;;11.32;;
18174;SDS011;9212;50.894;16.714;2022-08-25T12:57:26;27.55;;;11.48;;
18174;SDS011;9212;50.894;16.714;2022-08-25T13:00:06;32.53;;;9.52;;
18174;SDS011;9212;50.894;16.714;2022-08-25T13:02:50;32.95;;;10.07;;
18174;SDS011;9212;50.894;16.714;2022-08-25T13:11:26;20.33;;;7.75;;
18174;SDS011;9212;50.894;16.714;2022-08-25T13:14:03;22.75;;;8.32;;
18174;SDS011;9212;50.894;16.714;2022-08-25T13:16:37;20.83;;;9.07;;
18174;SDS011;9212;50.894;16.714;2022-08-25T13:19:04;21.60;;;8.10;;
18174;SDS011;9212;50.894;16.714;2022-08-25T13:21:32;27.92;;;8.40;;
18174;SDS011;9212;50.894;16.714;2022-08-25T13:24:04;20.25;;;8.02;;
18174;SDS011;9212;50.894;16.714;2022-08-25T13:26:36;19.88;;;8.20;;
18174;SDS011;9212;50.894;16.714;2022-08-25T13:29:12;23.95;;;8.45;;
18174;SDS011;9212;50.894;16.714;2022-08-25T13:31:49;18.63;;;7.78;;
18174;SDS011;9212;50.894;16.714;2022-08-25T13:34:20;20.60;;;7.00;;
18174;SDS011;9212;50.894;16.714;2022-08-25T13:36:49;19.45;;;6.88;;
18174;SDS011;9212;50.894;16.714;2022-08-25T13:39:34;24.52;;;6.75;;
18174;SDS011;9212;50.894;16.714;2022-08-25T13:42:02;23.20;;;7.57;;
18174;SDS011;9212;50.894;16.714;2022-08-25T13:44:35;21.63;;;8.50;;
18174;SDS011;9212;50.894;16.714;2022-08-25T13:47:04;19.85;;;7.55;;
18174;SDS011;9212;50.894;16.714;2022-08-25T13:49:33;30.02;;;7.97;;
18174;SDS011;9212;50.894;16.714;2022-08-25T13:52:01;22.80;;;7.25;;
18174;SDS011;9212;50.894;16.714;2022-08-25T13:54:29;17.23;;;7.20;;
18174;SDS011;9212;50.894;16.714;2022-08-25T13:57:11;21.23;;;7.10;;
18174;SDS011;9212;50.894;16.714;2022-08-25T13:59:42;21.30;;;7.72;;
18174;SDS011;9212;50.894;16.714;2022-08-25T14:02:13;24.33;;;7.57;;
18174;SDS011;9212;50.894;16.714;2022-08-25T14:05:08;24.33;;;7.63;;
18174;SDS011;9212;50.894;16.714;2022-08-25T14:07:36;22.23;;;7.68;;
18174;SDS011;9212;50.894;16.714;2022-08-25T14:10:04;19.13;;;7.13;;
18174;SDS011;9212;50.894;16.714;2022-08-25T14:12:35;22.00;;;6.65;;
18174;SDS011;9212;50.894;16.714;2022-08-25T14:15:08;16.25;;;5.90;;
18174;SDS011;9212;50.894;16.714;2022-08-25T14:17:38;32.72;;;5.97;;
18174;SDS011;9212;50.894;16.714;2022-08-25T14:20:14;21.67;;;6.43;;
18174;SDS011;9212;50.894;16.714;2022-08-25T14:22:45;21.55;;;5.65;;
18174;SDS011;9212;50.894;16.714;2022-08-25T14:25:14;22.85;;;6.00;;
18174;SDS011;9212;50.894;16.714;2022-08-25T14:27:41;29.83;;;6.53;;
18174;SDS011;9212;50.894;16.714;2022-08-25T14:30:11;24.58;;;6.70;;
18174;SDS011;9212;50.894;16.714;2022-08-25T14:32:39;21.65;;;6.40;;
18174;SDS011;9212;50.894;16.714;2022-08-25T14:35:06;18.83;;;6.93;;
18174;SDS011;9212;50.894;16.714;2022-08-25T14:37:34;24.13;;;9.15;;
18174;SDS011;9212;50.894;16.714;2022-08-25T14:40:02;26.10;;;9.38;;
18174;SDS011;9212;50.894;16.714;2022-08-25T14:42:30;26.63;;;8.23;;
18174;SDS011;9212;50.894;16.714;2022-08-25T14:44:57;23.65;;;9.45;;
18174;SDS011;9212;50.894;16.714;2022-08-25T14:47:26;24.13;;;9.13;;
18174;SDS011;9212;50.894;16.714;2022-08-25T14:49:53;25.35;;;10.55;;
18174;SDS011;9212;50.894;16.714;2022-08-25T14:52:21;32.50;;;10.65;;
18174;SDS011;9212;50.894;16.714;2022-08-25T14:54:52;23.70;;;10.63;;
18174;SDS011;9212;50.894;16.714;2022-08-25T14:57:21;25.77;;;10.88;;
18174;SDS011;9212;50.894;16.714;2022-08-25T14:59:48;25.90;;;10.85;;
18174;SDS011;9212;50.894;16.714;2022-08-25T15:02:16;24.88;;;10.90;;
18174;SDS011;9212;50.894;16.714;2022-08-25T15:04:47;27.95;;;11.20;;